Time;durP1;ratioP1;P1;durP2;ratioP2;P2;SDS_P1;SDS_P2;PMS_P1;PMS_P2;Temp;Humidity;BMP_temperature;BMP_pressure;BME280_temperature;BME280_humidity;BME280_pressure;Samples;Min_cycle;Max_cycle;Signal;HPM_P1;HPM_P2
2023/10/27 04:01:40;;;;;;;3.05;2.25;;;9.40;99.90;;;;;;5405921;23;20288;-72
2023/10/27 04:04:07;;;;;;;3.05;2.85;;;9.40;99.90;;;;;;4945555;29;20240;-73
2023/10/27 04:06:33;;;;;;;3.17;2.35;;;9.40;99.90;;;;;;4950423;28;20288;-72
2023/10/27 04:09:00;;;;;;;3.20;2.85;;;9.40;99.90;;;;;;4949593;28;20213;-73
2023/10/27 04:11:27;;;;;;;2.33;2.00;;;9.40;99.90;;;;;;4951160;28;20225;-72
2023/10/27 04:13:54;;;;;;;3.30;2.88;;;9.40;99.90;;;;;;4952366;29;20213;-72
2023/10/27 04:16:21;;;;;;;5.32;3.35;;;9.40;99.90;;;;;;4947473;29;20205;-73
2023/10/27 04:18:49;;;;;;;7.13;3.78;;;9.40;99.90;;;;;;4944602;28;20220;-73
2023/10/27 04:21:16;;;;;;;2.58;2.38;;;9.40;99.90;;;;;;4945340;28;20702;-73
2023/10/27 04:23:44;;;;;;;3.00;2.75;;;9.40;99.90;;;;;;4955895;29;20214;-73
2023/10/27 04:26:11;;;;;;;2.95;2.20;;;9.40;99.90;;;;;;4949436;29;20228;-73
2023/10/27 04:28:38;;;;;;;2.75;2.55;;;9.40;99.90;;;;;;4946424;29;20289;-73
2023/10/27 04:31:05;;;;;;;3.05;2.50;;;9.40;99.90;;;;;;4946520;29;20233;-73
2023/10/27 04:33:33;;;;;;;4.25;2.30;;;9.40;99.90;;;;;;4948448;29;20316;-73
2023/10/27 04:36:01;;;;;;;3.80;3.25;;;9.40;99.90;;;;;;4947445;29;20301;-73
2023/10/27 04:38:28;;;;;;;3.20;2.70;;;9.40;99.90;;;;;;4953744;29;20205;-73
2023/10/27 04:40:54;;;;;;;2.83;2.55;;;9.40;99.90;;;;;;4951870;29;20233;-73
2023/10/27 04:43:21;;;;;;;4.13;2.90;;;9.30;99.90;;;;;;4951901;29;20212;-73
2023/10/27 04:45:48;;;;;;;2.38;2.20;;;9.40;99.90;;;;;;4951368;29;20256;-73
2023/10/27 04:48:15;;;;;;;3.42;2.58;;;9.40;99.90;;;;;;4954020;28;20627;-73
2023/10/27 04:50:41;;;;;;;3.08;2.85;;;9.40;99.90;;;;;;4952496;28;20228;-72
2023/10/27 04:53:09;;;;;;;2.70;2.50;;;9.40;99.90;;;;;;4949083;28;20237;-72
2023/10/27 04:55:36;;;;;;;3.85;2.53;;;9.40;99.90;;;;;;4949469;29;20660;-73
2023/10/27 04:58:03;;;;;;;3.50;3.25;;;9.30;99.90;;;;;;4953650;29;20301;-73
2023/10/27 05:00:30;;;;;;;3.08;2.78;;;9.40;99.90;;;;;;4954374;28;20229;-72
2023/10/27 05:02:56;;;;;;;4.43;2.70;;;9.40;99.90;;;;;;4954114;29;20562;-73
2023/10/27 05:05:23;;;;;;;4.55;2.65;;;9.30;99.90;;;;;;4953729;29;20216;-73
2023/10/27 05:07:50;;;;;;;2.08;1.80;;;9.40;99.90;;;;;;4943057;28;20236;-73
2023/10/27 05:10:18;;;;;;;3.67;2.20;;;9.40;99.90;;;;;;4951914;28;20205;-73
2023/10/27 05:12:44;;;;;;;1.90;1.77;;;9.30;99.90;;;;;;4954155;29;20233;-73
2023/10/27 05:15:11;;;;;;;2.40;2.20;;;9.30;99.90;;;;;;4954697;29;20684;-73
2023/10/27 05:17:38;;;;;;;2.72;2.53;;;9.30;99.90;;;;;;4946761;28;20213;-73
2023/10/27 05:20:06;;;;;;;2.50;2.30;;;9.30;99.90;;;;;;4946989;29;20210;-73
2023/10/27 05:22:33;;;;;;;2.65;2.50;;;9.40;99.90;;;;;;4954654;28;20229;-72
2023/10/27 05:25:03;;;;;;;6.32;2.33;;;9.40;99.90;;;;;;4954045;29;20273;-72
2023/10/27 05:27:31;;;;;;;4.88;2.58;;;9.40;99.90;;;;;;4953167;29;20213;-73
2023/10/27 05:29:57;;;;;;;3.50;2.05;;;9.30;99.90;;;;;;4955120;29;20220;-73
2023/10/27 05:32:24;;;;;;;2.50;2.22;;;9.30;99.90;;;;;;4950566;28;20252;-73
2023/10/27 05:34:51;;;;;;;3.13;2.90;;;9.40;99.90;;;;;;4954004;29;20217;-73
2023/10/27 05:37:19;;;;;;;3.38;2.40;;;9.30;99.90;;;;;;4943571;28;20228;-73
2023/10/27 05:39:45;;;;;;;4.13;2.85;;;9.40;99.90;;;;;;4948723;29;20622;-73
2023/10/27 05:42:12;;;;;;;3.70;2.92;;;9.30;99.90;;;;;;4952931;28;20225;-73
2023/10/27 05:44:41;;;;;;;2.78;2.47;;;9.30;99.90;;;;;;4951339;28;20293;-73
2023/10/27 05:47:08;;;;;;;5.25;3.05;;;9.30;99.90;;;;;;4950387;28;20211;-73
2023/10/27 05:49:34;;;;;;;2.58;2.38;;;9.30;99.90;;;;;;4951420;29;20205;-73
2023/10/27 05:52:03;;;;;;;3.80;2.50;;;9.40;99.90;;;;;;4947900;28;20239;-73
2023/10/27 05:54:30;;;;;;;7.03;3.35;;;9.30;99.90;;;;;;4949768;28;20230;-74
2023/10/27 05:56:57;;;;;;;4.20;3.60;;;9.30;99.90;;;;;;4946797;28;20212;-73
2023/10/27 05:59:23;;;;;;;2.65;2.45;;;9.30;99.90;;;;;;4947548;29;20241;-73
2023/10/27 06:01:54;;;;;;;4.53;2.67;;;9.30;99.90;;;;;;4948933;28;20260;-74
2023/10/27 06:04:21;;;;;;;3.35;2.45;;;9.30;99.90;;;;;;4951592;29;20217;-73
2023/10/27 06:06:47;;;;;;;3.38;3.03;;;9.30;99.90;;;;;;4954132;29;20632;-73
2023/10/27 06:09:14;;;;;;;4.03;3.00;;;9.30;99.90;;;;;;4954378;29;20577;-73
2023/10/27 06:11:41;;;;;;;3.65;3.35;;;9.30;99.90;;;;;;4952749;28;20250;-73
2023/10/27 06:14:08;;;;;;;5.80;3.00;;;9.30;99.90;;;;;;4949085;29;20620;-73
2023/10/27 06:16:35;;;;;;;3.60;2.95;;;9.30;99.90;;;;;;4950713;29;20677;-72
2023/10/27 06:19:03;;;;;;;5.38;3.35;;;9.30;99.90;;;;;;4949530;29;20221;-72
2023/10/27 06:21:30;;;;;;;9.20;3.28;;;9.30;99.90;;;;;;4947814;29;20312;-73
2023/10/27 06:23:57;;;;;;;3.72;2.85;;;9.30;99.90;;;;;;4953835;29;20205;-72
2023/10/27 06:26:24;;;;;;;4.90;3.65;;;9.40;99.90;;;;;;4949404;29;20236;-73
2023/10/27 06:28:51;;;;;;;4.28;2.95;;;9.30;99.90;;;;;;4953696;29;20244;-74
2023/10/27 06:31:17;;;;;;;2.40;2.30;;;9.30;99.90;;;;;;4954293;29;20233;-73
2023/10/27 06:33:44;;;;;;;2.97;2.75;;;9.30;99.90;;;;;;4951035;29;20240;-72
2023/10/27 06:36:12;;;;;;;3.67;3.03;;;9.30;99.90;;;;;;4947912;29;20236;-71
2023/10/27 06:38:39;;;;;;;3.28;2.97;;;9.30;99.90;;;;;;4948241;28;20201;-71
2023/10/27 06:41:05;;;;;;;3.25;2.90;;;9.30;99.90;;;;;;4951008;29;20300;-72
2023/10/27 06:43:32;;;;;;;3.20;3.00;;;9.30;99.90;;;;;;4952387;28;20201;-72
2023/10/27 06:45:59;;;;;;;4.53;3.15;;;9.30;99.90;;;;;;4953300;29;20550;-71
2023/10/27 06:48:26;;;;;;;3.45;3.15;;;9.30;99.90;;;;;;4952523;29;20217;-72
2023/10/27 06:50:52;;;;;;;3.20;3.00;;;9.30;99.90;;;;;;4947650;29;20751;-73
2023/10/27 06:53:20;;;;;;;3.38;2.95;;;9.30;99.90;;;;;;4950712;28;20233;-73
2023/10/27 06:55:47;;;;;;;5.57;3.13;;;9.40;99.90;;;;;;4947903;28;20210;-72
2023/10/27 06:58:14;;;;;;;2.90;2.70;;;9.40;99.90;;;;;;4952499;28;20621;-72
2023/10/27 07:00:40;;;;;;;3.00;2.80;;;9.40;99.90;;;;;;4951107;28;20244;-72
2023/10/27 07:03:07;;;;;;;4.35;3.03;;;9.40;99.90;;;;;;4952392;29;20245;-72
2023/10/27 07:05:34;;;;;;;6.10;3.13;;;9.40;99.90;;;;;;4951688;28;20652;-72
2023/10/27 07:08:01;;;;;;;3.13;2.90;;;9.30;99.90;;;;;;4946447;28;20205;-72
2023/10/27 07:10:30;;;;;;;6.30;3.50;;;9.40;99.90;;;;;;4945528;29;20236;-73
2023/10/27 07:12:57;;;;;;;5.25;2.80;;;9.40;99.90;;;;;;4948267;28;20225;-72
2023/10/27 07:15:24;;;;;;;4.47;2.55;;;9.40;99.90;;;;;;4949057;28;20205;-72
2023/10/27 07:17:51;;;;;;;3.30;3.03;;;9.40;99.90;;;;;;4950809;28;20213;-73
2023/10/27 07:20:18;;;;;;;2.80;2.60;;;9.40;99.90;;;;;;4952019;29;20224;-72
2023/10/27 07:22:45;;;;;;;4.35;2.90;;;9.40;99.90;;;;;;4951274;29;20212;-73
2023/10/27 07:25:11;;;;;;;3.40;2.88;;;9.40;99.90;;;;;;4951378;29;20209;-73
2023/10/27 07:27:40;;;;;;;3.70;2.95;;;9.50;99.90;;;;;;4954159;28;20602;-73
2023/10/27 07:30:07;;;;;;;3.60;3.40;;;9.50;99.90;;;;;;4947259;28;20209;-72
2023/10/27 07:32:34;;;;;;;5.80;3.20;;;9.50;99.90;;;;;;4951236;28;20233;-72
2023/10/27 07:35:01;;;;;;;3.50;3.20;;;9.40;99.90;;;;;;4951029;28;20217;-72
2023/10/27 07:37:28;;;;;;;4.90;3.30;;;9.50;99.90;;;;;;4944751;28;20214;-73
2023/10/27 07:39:55;;;;;;;5.63;2.88;;;9.50;99.90;;;;;;4951420;28;20209;-72
2023/10/27 07:42:22;;;;;;;7.10;3.55;;;9.50;99.90;;;;;;4947596;29;20221;-73
2023/10/27 07:44:50;;;;;;;3.60;3.05;;;9.50;99.90;;;;;;4952338;29;20591;-72
2023/10/27 07:47:17;;;;;;;4.93;3.35;;;9.50;99.90;;;;;;4950563;28;20206;-72
2023/10/27 07:49:43;;;;;;;4.13;2.72;;;9.50;99.90;;;;;;4946023;29;20312;-73
2023/10/27 07:52:10;;;;;;;3.55;3.20;;;9.50;99.90;;;;;;4946176;29;20233;-73
2023/10/27 07:54:37;;;;;;;4.57;2.80;;;9.60;99.90;;;;;;4949947;28;20224;-72
2023/10/27 07:57:04;;;;;;;2.88;2.50;;;9.60;99.90;;;;;;4950242;29;20658;-72
2023/10/27 07:59:32;;;;;;;4.07;3.00;;;9.60;99.90;;;;;;4952300;28;20209;-73
2023/10/27 08:02:00;;;;;;;7.55;2.90;;;9.60;99.90;;;;;;4954747;28;20268;-73
2023/10/27 08:04:26;;;;;;;3.33;3.03;;;9.60;99.90;;;;;;4947123;28;20205;-73
2023/10/27 08:06:53;;;;;;;5.78;2.78;;;9.60;99.90;;;;;;4952377;28;20669;-72
2023/10/27 08:09:20;;;;;;;3.38;3.08;;;9.70;99.90;;;;;;4946339;29;20232;-73
2023/10/27 08:11:49;;;;;;;3.80;3.40;;;9.80;99.90;;;;;;4950620;29;20598;-71
2023/10/27 08:14:16;;;;;;;4.15;3.70;;;9.70;99.90;;;;;;4948503;29;20226;-72
2023/10/27 08:16:43;;;;;;;3.47;3.17;;;9.70;99.90;;;;;;4953007;29;20236;-71
2023/10/27 08:19:11;;;;;;;5.60;3.63;;;9.70;99.90;;;;;;4954562;29;20228;-73
2023/10/27 08:21:38;;;;;;;7.85;3.10;;;9.70;99.90;;;;;;4953663;28;20732;-72
2023/10/27 08:24:06;;;;;;;3.65;3.35;;;9.70;99.90;;;;;;4950666;29;20209;-73
2023/10/27 08:26:32;;;;;;;4.22;3.08;;;9.70;99.90;;;;;;4953426;28;20213;-74
2023/10/27 08:28:59;;;;;;;3.97;3.50;;;9.80;99.90;;;;;;4955884;29;20216;-74
2023/10/27 08:31:26;;;;;;;2.95;2.75;;;9.70;99.90;;;;;;4956274;29;20258;-73
2023/10/27 08:33:52;;;;;;;5.13;3.50;;;9.70;99.90;;;;;;4952043;29;20232;-73
2023/10/27 08:36:20;;;;;;;4.20;3.75;;;9.70;99.90;;;;;;4952715;28;20214;-74
2023/10/27 08:38:47;;;;;;;4.40;3.03;;;9.70;99.90;;;;;;4955729;28;20217;-73
2023/10/27 08:41:14;;;;;;;5.45;3.35;;;9.70;99.90;;;;;;4957086;28;20240;-73
2023/10/27 08:43:41;;;;;;;5.28;3.70;;;9.70;99.90;;;;;;4955543;28;20252;-74
2023/10/27 08:46:08;;;;;;;4.63;3.60;;;9.70;99.90;;;;;;4953157;29;20206;-73
2023/10/27 08:48:35;;;;;;;4.60;4.13;;;9.80;99.90;;;;;;4952942;28;20264;-74
2023/10/27 08:51:05;;;;;;;5.13;4.10;;;9.80;99.90;;;;;;4952306;28;20227;-73
2023/10/27 08:53:33;;;;;;;4.85;3.85;;;9.70;99.90;;;;;;4952240;29;20647;-73
2023/10/27 08:56:00;;;;;;;6.57;4.22;;;9.80;99.90;;;;;;4955021;28;20668;-71
2023/10/27 08:58:28;;;;;;;5.40;3.50;;;9.80;99.90;;;;;;4951914;28;20688;-73
2023/10/27 09:00:55;;;;;;;4.07;3.30;;;9.80;99.90;;;;;;4954873;28;20245;-73
2023/10/27 09:03:21;;;;;;;7.95;4.30;;;9.70;99.90;;;;;;4949206;29;20551;-73
2023/10/27 09:05:48;;;;;;;4.50;4.05;;;9.70;99.90;;;;;;4952810;28;20217;-72
2023/10/27 09:08:15;;;;;;;5.80;4.25;;;9.80;99.90;;;;;;4952478;28;20214;-73
2023/10/27 09:10:46;;;;;;;5.75;3.90;;;9.80;99.90;;;;;;4950665;28;20229;-73
2023/10/27 09:13:13;;;;;;;4.32;3.92;;;9.80;99.90;;;;;;4951001;28;20229;-72
2023/10/27 09:15:45;;;;;;;3.70;3.40;;;9.80;99.90;;;;;;4949486;29;20217;-73
2023/10/27 09:18:12;;;;;;;4.90;4.03;;;9.80;99.90;;;;;;4954756;29;20261;-70
2023/10/27 09:20:50;;;;;;;5.28;3.75;;;9.80;99.90;;;;;;4955109;29;20712;-73
2023/10/27 09:23:17;;;;;;;4.07;3.60;;;9.80;99.90;;;;;;4953879;29;20204;-72
2023/10/27 09:25:46;;;;;;;4.38;3.97;;;9.90;99.90;;;;;;4953761;29;20202;-73
2023/10/27 09:28:13;;;;;;;4.60;4.20;;;9.80;99.90;;;;;;4954207;28;20241;-70
2023/10/27 09:30:42;;;;;;;5.57;3.65;;;9.80;99.90;;;;;;4950819;28;20241;-73
2023/10/27 09:33:16;;;;;;;3.97;3.13;;;9.90;99.90;;;;;;4950586;28;20336;-72
2023/10/27 09:35:44;;;;;;;6.82;4.35;;;9.80;99.90;;;;;;4953503;29;20690;-74
2023/10/27 09:38:12;;;;;;;3.63;3.13;;;9.80;99.90;;;;;;4949571;28;20292;-71
2023/10/27 09:40:40;;;;;;;3.70;3.35;;;9.80;99.90;;;;;;4951231;28;20237;-72
2023/10/27 09:43:14;;;;;;;3.88;3.45;;;9.80;99.90;;;;;;4950925;29;20555;-71
2023/10/27 09:45:49;;;;;;;8.75;4.72;;;9.80;99.90;;;;;;4946118;28;20215;-68
2023/10/27 09:48:18;;;;;;;3.38;3.05;;;9.80;99.90;;;;;;4946387;29;20209;-70
2023/10/27 09:50:47;;;;;;;4.45;3.92;;;9.80;99.90;;;;;;4947369;28;20229;-71
2023/10/27 09:53:16;;;;;;;4.47;3.97;;;9.80;99.90;;;;;;4950072;28;20308;-71
2023/10/27 09:55:43;;;;;;;6.30;5.25;;;9.80;99.90;;;;;;4950449;29;20202;-71
2023/10/27 09:58:11;;;;;;;6.53;4.30;;;9.80;99.90;;;;;;4953954;28;20737;-72
2023/10/27 10:00:41;;;;;;;8.15;4.43;;;9.90;99.90;;;;;;4954238;29;20238;-72
2023/10/27 10:03:08;;;;;;;4.50;3.63;;;9.80;99.90;;;;;;4953790;29;20562;-72
2023/10/27 10:06:08;;;;;;;5.45;4.35;;;9.90;99.90;;;;;;4951434;28;20214;-70
2023/10/27 10:08:35;;;;;;;4.78;3.85;;;9.90;99.90;;;;;;4952141;28;20305;-70
2023/10/27 10:11:13;;;;;;;5.70;3.97;;;9.90;99.90;;;;;;4951505;29;20586;-71
2023/10/27 10:16:17;;;;;;;5.43;3.67;;;9.80;99.90;;;;;;4967854;28;20701;-70
2023/10/27 10:18:52;;;;;;;4.32;3.78;;;9.80;99.90;;;;;;4972419;28;20214;-72
2023/10/27 10:21:33;;;;;;;6.80;4.07;;;9.90;99.90;;;;;;4975396;28;20695;-71
2023/10/27 10:24:09;;;;;;;5.25;3.80;;;9.90;99.90;;;;;;4967214;28;20204;-71
2023/10/27 10:27:07;;;;;;;4.63;3.88;;;9.90;99.90;;;;;;4955296;28;20260;-70
2023/10/27 10:29:34;;;;;;;7.13;3.35;;;10.00;99.90;;;;;;4956238;28;20208;-71
2023/10/27 10:32:31;;;;;;;4.15;3.70;;;10.10;99.90;;;;;;4962331;28;20225;-72
2023/10/27 10:35:34;;;;;;;6.13;4.97;;;10.10;99.90;;;;;;4953359;28;20234;-71
2023/10/27 10:38:37;;;;;;;4.10;3.75;;;10.10;99.90;;;;;;4886778;29;20219;-71
2023/10/27 10:41:03;;;;;;;4.13;3.70;;;10.10;99.90;;;;;;4880233;29;20290;-71
2023/10/27 10:43:33;;;;;;;7.40;4.47;;;10.20;99.90;;;;;;4932649;28;20216;-70
2023/10/27 10:46:01;;;;;;;5.70;4.10;;;10.20;99.90;;;;;;4954598;28;20261;-71
2023/10/27 10:48:30;;;;;;;6.97;4.25;;;10.20;99.90;;;;;;4956723;28;20214;-71
2023/10/27 10:51:03;;;;;;;7.60;4.47;;;10.20;99.90;;;;;;4952379;29;20216;-71
2023/10/27 10:53:30;;;;;;;7.70;4.65;;;10.20;99.90;;;;;;4959276;28;20328;-70
2023/10/27 10:55:58;;;;;;;4.80;4.30;;;10.20;99.90;;;;;;4961296;28;20233;-71
2023/10/27 10:58:25;;;;;;;5.93;3.90;;;10.10;99.90;;;;;;4964370;28;20300;-71
2023/10/27 11:00:53;;;;;;;4.47;3.92;;;10.10;99.90;;;;;;4953520;28;20210;-70
2023/10/27 11:03:22;;;;;;;3.28;3.03;;;10.10;99.90;;;;;;4954462;28;20205;-71
2023/10/27 11:05:54;;;;;;;3.30;3.10;;;10.10;99.90;;;;;;4962135;28;20237;-71
2023/10/27 11:08:25;;;;;;;4.07;3.40;;;10.10;99.90;;;;;;4960408;28;20209;-70
2023/10/27 11:11:01;;;;;;;2.90;2.72;;;10.10;99.90;;;;;;4956967;28;20214;-70
2023/10/27 11:13:28;;;;;;;3.85;3.33;;;10.10;99.90;;;;;;4958563;28;20241;-70
2023/10/27 11:15:54;;;;;;;2.97;2.78;;;10.10;99.90;;;;;;4957248;28;20237;-70
2023/10/27 11:18:21;;;;;;;6.22;2.53;;;10.10;99.90;;;;;;4962910;28;20215;-71
2023/10/27 11:20:49;;;;;;;5.20;3.15;;;10.10;99.90;;;;;;4959236;28;20214;-71
2023/10/27 11:23:17;;;;;;;3.15;2.95;;;10.00;99.90;;;;;;4952903;28;20306;-70
2023/10/27 11:25:44;;;;;;;3.30;3.10;;;10.10;99.90;;;;;;4958686;28;20242;-71
2023/10/27 11:28:26;;;;;;;3.72;3.15;;;10.10;99.90;;;;;;4952456;28;20224;-71
2023/10/27 11:31:07;;;;;;;4.53;4.13;;;10.00;99.90;;;;;;4956136;28;20205;-70
2023/10/27 11:33:35;;;;;;;3.17;2.97;;;10.10;99.90;;;;;;4956009;28;20663;-71
2023/10/27 11:36:03;;;;;;;3.85;2.95;;;10.00;99.90;;;;;;4952319;28;20247;-71
2023/10/27 11:38:34;;;;;;;3.28;3.08;;;10.10;99.90;;;;;;4959372;28;20670;-72
2023/10/27 11:41:12;;;;;;;3.92;3.63;;;10.10;99.90;;;;;;4960289;28;20309;-70
2023/10/27 11:43:39;;;;;;;4.40;4.00;;;10.10;99.90;;;;;;4952411;28;20208;-69
2023/10/27 11:46:11;;;;;;;4.57;3.67;;;10.10;99.90;;;;;;4953438;28;20232;-70
2023/10/27 11:48:37;;;;;;;3.67;3.38;;;10.20;99.90;;;;;;4951104;28;20217;-71
2023/10/27 11:51:07;;;;;;;4.80;3.53;;;10.10;99.90;;;;;;4946618;28;20305;-70
2023/10/27 11:53:35;;;;;;;4.25;3.25;;;10.10;99.90;;;;;;4957052;28;20653;-70
2023/10/27 11:56:03;;;;;;;3.13;2.92;;;10.10;99.90;;;;;;4952786;28;20222;-69
2023/10/27 11:58:30;;;;;;;4.30;3.80;;;10.10;99.90;;;;;;4953443;28;20665;-70
2023/10/27 12:00:57;;;;;;;4.13;3.55;;;10.10;99.90;;;;;;4953798;28;20220;-71
2023/10/27 12:03:24;;;;;;;4.97;4.57;;;10.10;99.90;;;;;;4953800;28;20209;-69
2023/10/27 12:05:50;;;;;;;5.40;3.97;;;10.20;99.90;;;;;;4952463;28;20235;-70
2023/10/27 12:08:18;;;;;;;3.45;3.25;;;10.10;99.90;;;;;;4952164;28;21831;-70
2023/10/27 12:10:45;;;;;;;6.00;3.88;;;10.20;99.90;;;;;;4950178;28;20335;-70
2023/10/27 12:13:12;;;;;;;3.63;3.42;;;10.20;99.90;;;;;;4947566;28;20223;-71
2023/10/27 12:15:39;;;;;;;3.78;3.53;;;10.20;99.90;;;;;;4958097;28;20324;-71
2023/10/27 12:18:07;;;;;;;3.97;3.67;;;10.20;99.90;;;;;;4950860;28;20616;-70
2023/10/27 12:20:33;;;;;;;4.00;3.60;;;10.20;99.90;;;;;;4955403;28;21160;-68
2023/10/27 12:23:01;;;;;;;3.85;3.42;;;10.20;99.90;;;;;;4951156;28;20211;-71
2023/10/27 12:25:30;;;;;;;4.40;3.90;;;10.20;99.90;;;;;;4957839;28;20311;-70
2023/10/27 12:27:57;;;;;;;2.90;2.70;;;10.20;99.90;;;;;;4970077;28;20214;-70
2023/10/27 12:30:24;;;;;;;6.82;3.47;;;10.20;99.90;;;;;;4970002;28;20681;-70
2023/10/27 12:32:53;;;;;;;3.38;2.85;;;10.20;99.90;;;;;;4962049;28;20212;-70
2023/10/27 12:35:21;;;;;;;4.05;3.70;;;10.10;99.90;;;;;;4952718;28;20851;-71
2023/10/27 12:37:48;;;;;;;3.35;2.85;;;10.20;99.90;;;;;;4958887;28;20659;-70
2023/10/27 12:40:15;;;;;;;3.10;2.90;;;10.20;99.90;;;;;;4958822;28;20232;-71
2023/10/27 12:42:43;;;;;;;3.33;3.00;;;10.20;99.90;;;;;;4972723;28;20692;-71
2023/10/27 12:45:13;;;;;;;3.70;3.40;;;10.20;99.90;;;;;;4973884;28;20233;-70
2023/10/27 12:47:42;;;;;;;3.08;2.85;;;10.20;99.90;;;;;;4964905;28;20210;-71
2023/10/27 12:50:10;;;;;;;4.55;3.40;;;10.20;99.90;;;;;;4974350;28;20212;-70
2023/10/27 12:52:37;;;;;;;5.65;2.78;;;10.20;99.90;;;;;;4959302;28;20574;-71
2023/10/27 12:55:04;;;;;;;4.18;3.78;;;10.20;99.90;;;;;;4955684;29;20248;-70
2023/10/27 12:57:32;;;;;;;4.72;3.40;;;10.20;99.90;;;;;;4955242;29;20300;-71
2023/10/27 13:00:01;;;;;;;3.88;3.58;;;10.20;99.90;;;;;;4957962;28;20220;-71
2023/10/27 13:02:27;;;;;;;4.15;3.80;;;10.20;99.90;;;;;;4963336;28;20634;-71
2023/10/27 13:04:56;;;;;;;5.13;4.22;;;10.20;99.90;;;;;;4969862;28;20249;-69
2023/10/27 13:07:23;;;;;;;3.55;3.25;;;10.10;99.90;;;;;;4964483;28;20212;-71
2023/10/27 13:09:50;;;;;;;6.07;3.35;;;10.10;99.90;;;;;;4965173;28;20205;-71
2023/10/27 13:12:16;;;;;;;4.07;3.03;;;10.10;99.90;;;;;;4968918;28;20201;-69
2023/10/27 13:14:43;;;;;;;3.80;3.50;;;10.20;99.90;;;;;;4952853;29;20317;-70
2023/10/27 13:17:12;;;;;;;5.25;3.83;;;10.20;99.90;;;;;;4954859;28;20205;-71
2023/10/27 13:19:39;;;;;;;5.32;3.97;;;10.10;99.90;;;;;;4941210;28;20206;-70
2023/10/27 13:22:05;;;;;;;3.30;3.00;;;10.10;99.90;;;;;;4940468;28;20229;-71
2023/10/27 13:24:33;;;;;;;4.97;3.58;;;10.10;99.90;;;;;;4941636;28;20222;-70
2023/10/27 13:27:00;;;;;;;4.47;4.07;;;10.10;99.90;;;;;;4943390;28;20630;-71
2023/10/27 13:29:28;;;;;;;5.88;5.03;;;10.10;99.90;;;;;;4954945;28;20213;-70
2023/10/27 13:31:55;;;;;;;4.40;3.53;;;10.00;99.90;;;;;;4943645;28;20206;-70
2023/10/27 13:34:24;;;;;;;4.93;4.05;;;10.00;99.90;;;;;;4936361;28;20719;-71
2023/10/27 13:36:50;;;;;;;5.47;4.65;;;10.10;99.90;;;;;;4942174;28;20210;-68
2023/10/27 13:39:19;;;;;;;6.80;4.90;;;10.10;99.90;;;;;;4948587;28;20205;-68
2023/10/27 13:41:45;;;;;;;4.90;3.92;;;10.00;99.90;;;;;;4949976;28;20220;-68
2023/10/27 13:44:12;;;;;;;4.55;4.15;;;10.10;99.90;;;;;;4948135;29;20706;-71
2023/10/27 13:46:39;;;;;;;9.38;4.78;;;10.00;99.90;;;;;;4952440;28;20206;-70
2023/10/27 13:49:10;;;;;;;6.53;4.82;;;10.00;99.90;;;;;;4950974;28;20205;-70
2023/10/27 13:51:38;;;;;;;5.35;4.28;;;10.00;99.90;;;;;;4953536;28;20213;-71
2023/10/27 13:54:06;;;;;;;5.05;4.43;;;10.00;99.90;;;;;;4953258;28;20225;-70
2023/10/27 13:56:34;;;;;;;7.43;5.10;;;10.00;99.90;;;;;;4951146;28;20292;-71
2023/10/27 13:59:01;;;;;;;6.38;4.20;;;10.00;99.90;;;;;;4952027;28;20285;-71
2023/10/27 14:01:28;;;;;;;4.07;3.63;;;10.00;99.90;;;;;;4953693;28;20210;-71
2023/10/27 14:03:55;;;;;;;4.32;4.03;;;10.00;99.90;;;;;;4952756;28;20215;-71
2023/10/27 14:06:23;;;;;;;6.65;4.18;;;10.00;99.90;;;;;;4948880;28;20218;-70
2023/10/27 14:08:51;;;;;;;4.55;4.15;;;9.90;99.90;;;;;;4953211;28;20220;-70
2023/10/27 14:11:18;;;;;;;5.00;4.50;;;9.90;99.90;;;;;;4940276;29;20597;-71
2023/10/27 14:13:46;;;;;;;4.55;4.15;;;9.90;99.90;;;;;;4952666;28;20221;-71
2023/10/27 14:16:13;;;;;;;5.45;4.25;;;9.90;99.90;;;;;;4952975;28;20668;-71
2023/10/27 14:18:40;;;;;;;5.80;4.60;;;10.00;99.90;;;;;;4949451;28;20221;-71
2023/10/27 14:21:07;;;;;;;5.07;4.30;;;10.00;99.90;;;;;;4952187;28;20693;-71
2023/10/27 14:23:34;;;;;;;6.20;4.53;;;9.90;99.90;;;;;;4949509;28;20661;-71
2023/10/27 14:26:02;;;;;;;4.40;3.47;;;10.00;99.90;;;;;;4949593;28;20223;-71
2023/10/27 14:28:30;;;;;;;8.50;5.28;;;10.00;99.90;;;;;;4946232;28;20228;-71
2023/10/27 14:30:59;;;;;;;8.38;5.10;;;9.90;99.90;;;;;;4939812;29;20722;-71
2023/10/27 14:33:26;;;;;;;7.80;6.10;;;9.90;99.90;;;;;;4949471;28;20217;-69
2023/10/27 14:35:53;;;;;;;5.88;5.03;;;10.00;99.90;;;;;;4947666;29;20238;-71
2023/10/27 14:38:21;;;;;;;3.95;3.65;;;9.90;99.90;;;;;;4952819;28;20232;-71
2023/10/27 14:40:52;;;;;;;4.93;4.32;;;9.90;99.90;;;;;;4949824;28;20210;-71
2023/10/27 14:43:20;;;;;;;6.22;4.68;;;9.90;99.90;;;;;;4936448;29;20213;-70
2023/10/27 14:45:57;;;;;;;5.28;4.75;;;9.90;99.90;;;;;;4948741;29;20233;-71
2023/10/27 14:48:23;;;;;;;4.68;4.18;;;9.90;99.90;;;;;;4936055;29;20202;-70
2023/10/27 14:50:56;;;;;;;4.60;3.95;;;9.90;99.90;;;;;;4948349;29;20209;-70
2023/10/27 14:53:23;;;;;;;7.78;4.88;;;9.90;99.90;;;;;;4955547;28;20205;-71
2023/10/27 14:55:57;;;;;;;6.28;4.20;;;9.90;99.90;;;;;;4951808;28;20243;-70
2023/10/27 14:58:25;;;;;;;6.50;5.38;;;9.90;99.90;;;;;;4952931;29;20218;-71
2023/10/27 15:00:52;;;;;;;6.07;5.55;;;9.90;99.90;;;;;;4949090;29;20217;-70
2023/10/27 15:03:20;;;;;;;7.43;5.43;;;9.90;99.90;;;;;;4952027;28;20272;-71
2023/10/27 15:05:46;;;;;;;5.05;4.55;;;9.90;99.90;;;;;;4951298;28;20599;-71
2023/10/27 15:08:13;;;;;;;6.10;4.65;;;9.90;99.90;;;;;;4946714;29;20693;-69
2023/10/27 15:10:40;;;;;;;9.43;5.53;;;9.90;99.90;;;;;;4954437;28;20210;-71
2023/10/27 15:13:07;;;;;;;4.63;4.22;;;9.90;99.90;;;;;;4949785;28;20209;-71
2023/10/27 15:15:35;;;;;;;6.72;5.07;;;9.80;99.90;;;;;;4952774;28;20318;-69
2023/10/27 15:18:02;;;;;;;7.03;5.32;;;9.80;99.90;;;;;;4952389;29;20210;-71
2023/10/27 15:20:28;;;;;;;7.43;5.70;;;9.80;99.90;;;;;;4952424;28;20212;-70
2023/10/27 15:22:56;;;;;;;8.05;6.90;;;9.80;99.90;;;;;;4949093;28;20202;-70
2023/10/27 15:25:23;;;;;;;7.38;5.85;;;9.80;99.90;;;;;;4950771;29;20238;-70
2023/10/27 15:27:50;;;;;;;5.57;5.03;;;9.80;99.90;;;;;;4952000;28;20209;-71
2023/10/27 15:30:16;;;;;;;5.82;5.28;;;9.80;99.90;;;;;;4950873;29;20205;-70
2023/10/27 15:32:44;;;;;;;8.25;6.25;;;9.80;99.90;;;;;;4949341;28;20691;-70
2023/10/27 15:35:11;;;;;;;8.77;6.82;;;9.80;99.90;;;;;;4952924;28;21028;-71
2023/10/27 15:37:38;;;;;;;13.27;6.68;;;9.80;99.90;;;;;;4949907;28;20205;-71
2023/10/27 15:40:13;;;;;;;12.70;6.45;;;9.80;99.90;;;;;;4951197;28;20201;-70
2023/10/27 15:42:40;;;;;;;8.35;5.30;;;9.70;99.90;;;;;;4954069;28;20205;-71
2023/10/27 15:45:08;;;;;;;9.93;6.90;;;9.70;99.90;;;;;;4952513;28;20761;-71
2023/10/27 15:47:37;;;;;;;7.80;5.70;;;9.70;99.90;;;;;;4942833;28;20210;-70
2023/10/27 15:50:06;;;;;;;11.70;6.75;;;9.70;99.90;;;;;;4950185;28;20212;-70
2023/10/27 15:52:33;;;;;;;11.45;7.47;;;9.70;99.90;;;;;;4950948;28;20662;-70
2023/10/27 15:55:00;;;;;;;9.77;5.75;;;9.70;99.90;;;;;;4948164;28;20239;-70
2023/10/27 15:57:26;;;;;;;9.57;6.07;;;9.70;99.90;;;;;;4952779;28;20208;-70
2023/10/27 15:59:53;;;;;;;16.77;7.53;;;9.70;99.90;;;;;;4941009;28;21032;-70
2023/10/27 16:02:20;;;;;;;13.77;7.40;;;9.60;99.90;;;;;;4944495;28;20213;-70
2023/10/27 16:04:46;;;;;;;12.93;6.72;;;9.60;99.90;;;;;;4953468;28;20237;-70
2023/10/27 16:07:14;;;;;;;10.10;6.35;;;9.60;99.90;;;;;;4939407;29;20217;-70
2023/10/27 16:09:42;;;;;;;14.07;8.20;;;9.60;99.90;;;;;;4943276;29;20667;-70
2023/10/27 16:12:09;;;;;;;13.30;8.82;;;9.60;99.90;;;;;;4946948;28;20237;-70
2023/10/27 16:14:36;;;;;;;11.55;7.50;;;9.60;99.90;;;;;;4953102;28;20248;-72
2023/10/27 16:17:03;;;;;;;10.13;7.28;;;9.60;99.90;;;;;;4946502;28;20226;-70
2023/10/27 16:19:29;;;;;;;14.20;7.15;;;9.60;99.90;;;;;;4954887;28;20209;-70
2023/10/27 16:21:56;;;;;;;14.98;8.20;;;9.60;99.90;;;;;;4951781;28;20212;-71
2023/10/27 16:24:24;;;;;;;21.80;8.68;;;9.60;99.90;;;;;;4953256;28;20228;-72
2023/10/27 16:26:51;;;;;;;14.40;7.90;;;9.60;99.90;;;;;;4955964;28;20216;-72
2023/10/27 16:29:18;;;;;;;16.42;8.20;;;9.60;99.90;;;;;;4957339;28;20210;-71
2023/10/27 16:31:45;;;;;;;17.05;10.40;;;9.60;99.90;;;;;;4941816;29;20214;-71
2023/10/27 16:34:14;;;;;;;13.48;7.55;;;9.60;99.90;;;;;;4942645;29;20225;-70
2023/10/27 16:36:41;;;;;;;13.68;7.38;;;9.60;99.90;;;;;;4954844;28;20284;-72
2023/10/27 16:39:10;;;;;;;14.00;8.95;;;9.60;99.90;;;;;;4952277;28;20244;-70
2023/10/27 16:41:38;;;;;;;15.88;8.00;;;9.50;99.90;;;;;;4951450;28;20255;-69
2023/10/27 16:44:06;;;;;;;12.48;8.38;;;9.50;99.90;;;;;;4945636;28;20217;-70
2023/10/27 16:46:32;;;;;;;19.45;9.27;;;9.50;99.90;;;;;;4947174;28;20219;-68
2023/10/27 16:48:59;;;;;;;13.43;9.02;;;9.50;99.90;;;;;;4985065;23;20236;-71
2023/10/27 16:51:27;;;;;;;16.20;8.52;;;9.50;99.90;;;;;;4962912;28;20236;-72
2023/10/27 16:53:53;;;;;;;12.57;8.75;;;9.50;99.90;;;;;;4969288;28;20215;-72
2023/10/27 16:56:21;;;;;;;10.45;7.60;;;9.50;99.90;;;;;;4965016;28;20723;-71
2023/10/27 16:58:49;;;;;;;11.40;8.05;;;9.50;99.90;;;;;;4953191;28;20233;-70
2023/10/27 17:01:15;;;;;;;11.02;7.07;;;9.50;99.90;;;;;;4946062;28;20579;-73